Bitola, Macedonia
Current Conditions -  °F | °C
As of 7:30 PM on Monday 20 Oct 2014 (Local Time) from LWSK Reporting Station
Clear Clear  
Wind Chill: 52°   Ceiling: Unl
Heat Index: 52°   Visibility: 6mi
Dew Point: 46°   Wind: 0mph
Humidity: 82%   Direction: NA
Pressure: 30.12"   Gusts: NA
Location:  41.04°N, 21.34°E
Report Text: LWSK 201730Z 00000KT CAVOK 11/08 Q1020 NOSIG
Loading
Personal Weather Stations






























Interactive Weather Map New forecast layout! Learn more

10-Day Weather Forecast

Advertisements
Track Severe Weather on mobile